createdAt,value
2023-02-22T00:01:08.235Z,86.15
2023-02-22T00:03:36.799Z,86.23
2023-02-22T00:06:07.345Z,86.38
2023-02-22T00:08:38.325Z,85.81
2023-02-22T00:11:10.647Z,86.49
2023-02-22T00:13:40.032Z,86.38
2023-02-22T00:16:08.779Z,86.70
2023-02-22T00:18:37.853Z,86.28
2023-02-22T00:21:10.626Z,86.25
2023-02-22T00:23:43.347Z,86.36
2023-02-22T00:26:13.246Z,86.69
2023-02-22T00:28:42.470Z,87.12
2023-02-22T00:31:10.586Z,87.35
2023-02-22T00:33:40.465Z,87.53
2023-02-22T00:36:10.981Z,87.85
2023-02-22T00:38:40.008Z,87.81
2023-02-22T00:41:08.608Z,87.62
2023-02-22T00:43:37.180Z,88.39
2023-02-22T00:46:05.777Z,88.45
2023-02-22T00:48:34.181Z,88.52
2023-02-22T00:51:02.285Z,88.57
2023-02-22T00:53:30.755Z,88.45
2023-02-22T00:55:59.236Z,88.29
2023-02-22T00:58:27.742Z,87.91
2023-02-22T01:00:56.301Z,88.33
2023-02-22T01:03:24.698Z,88.46
2023-02-22T01:05:53.225Z,88.32
2023-02-22T01:08:21.614Z,88.56
2023-02-22T01:10:52.599Z,88.67
2023-02-22T01:13:21.087Z,89.59
2023-02-22T01:15:49.974Z,89.25
2023-02-22T01:18:18.556Z,89.31
2023-02-22T01:20:48.059Z,88.97
2023-02-22T01:23:17.448Z,89.44
2023-02-22T01:25:45.939Z,89.04
2023-02-22T01:28:15.282Z,88.56
2023-02-22T01:30:43.829Z,89.06
2023-02-22T01:33:13.151Z,88.96
2023-02-22T01:35:41.902Z,88.97
2023-02-22T01:38:14.088Z,89.85
2023-02-22T01:40:45.442Z,90.00
2023-02-22T01:43:33.338Z,90.20
2023-02-22T01:46:08.469Z,89.91
2023-02-22T01:48:47.177Z,89.96
2023-02-22T01:51:25.383Z,89.94
2023-02-22T01:54:07.593Z,90.15
2023-02-22T01:56:41.418Z,90.73
2023-02-22T01:59:13.002Z,90.95
2023-02-22T02:01:44.739Z,90.87
2023-02-22T02:04:25.544Z,90.66
2023-02-22T02:06:55.952Z,91.10
2023-02-22T02:09:52.204Z,91.08
2023-02-22T02:12:23.508Z,91.54
2023-02-22T02:14:51.489Z,91.74
2023-02-22T02:17:24.268Z,92.16
2023-02-22T02:20:21.168Z,92.36
2023-02-22T02:23:10.068Z,92.48
2023-02-22T02:26:09.145Z,92.56
2023-02-22T02:29:01.730Z,91.96
2023-02-22T02:32:26.104Z,91.93
2023-02-22T02:35:14.342Z,92.36
2023-02-22T02:38:19.136Z,92.80
2023-02-22T02:41:06.776Z,93.25
2023-02-22T02:44:05.576Z,93.97
2023-02-22T02:46:59.356Z,94.10
2023-02-22T02:49:55.757Z,93.94
2023-02-22T02:52:28.642Z,93.83
2023-02-22T02:54:58.012Z,94.61
2023-02-22T02:57:26.547Z,94.50
2023-02-22T02:59:54.919Z,95.07
2023-02-22T03:03:17.515Z,94.76
2023-02-22T03:06:23.324Z,94.71
2023-02-22T03:09:21.595Z,94.54
2023-02-22T03:12:01.355Z,95.00
2023-02-22T03:14:55.812Z,95.03
2023-02-22T03:18:08.880Z,95.43
2023-02-22T03:21:00.217Z,95.46
2023-02-22T03:23:43.440Z,95.62
2023-02-22T03:26:24.043Z,95.46
2023-02-22T03:28:55.810Z,95.28
2023-02-22T03:31:37.249Z,95.20
2023-02-22T03:34:27.569Z,94.96
2023-02-22T03:37:01.121Z,94.73
2023-02-22T03:39:31.942Z,94.58
2023-02-22T03:42:07.985Z,94.42
2023-02-22T03:44:40.239Z,94.21
2023-02-22T03:47:14.634Z,93.60
2023-02-22T03:49:56.309Z,93.38
2023-02-22T03:52:24.964Z,93.44
2023-02-22T03:54:54.585Z,92.75
2023-02-22T03:57:29.816Z,92.95
2023-02-22T03:59:57.851Z,93.04
2023-02-22T04:02:26.333Z,92.58
2023-02-22T04:04:54.797Z,92.74
2023-02-22T04:07:23.210Z,92.42
2023-02-22T04:09:51.376Z,92.63
2023-02-22T04:12:19.824Z,92.32
2023-02-22T04:14:48.206Z,92.38
2023-02-22T04:17:16.229Z,92.73
2023-02-22T04:19:45.720Z,92.84
2023-02-22T04:22:13.773Z,93.23
2023-02-22T04:24:42.144Z,93.41
2023-02-22T04:27:10.544Z,93.55
2023-02-22T04:29:38.604Z,93.71
2023-02-22T04:32:07.053Z,93.20
2023-02-22T04:34:35.240Z,93.16
2023-02-22T04:37:03.683Z,92.85
2023-02-22T04:39:32.112Z,92.70
2023-02-22T04:42:00.165Z,92.50
2023-02-22T04:44:28.227Z,92.33
2023-02-22T04:46:56.682Z,92.41
2023-02-22T04:49:25.208Z,91.58
2023-02-22T04:51:53.767Z,92.00
2023-02-22T04:54:21.802Z,92.51
2023-02-22T04:56:49.923Z,92.56
2023-02-22T04:59:19.720Z,92.63
2023-02-22T05:01:47.953Z,92.71
2023-02-22T05:04:16.051Z,92.99
2023-02-22T05:06:44.043Z,93.08
2023-02-22T05:09:12.097Z,92.94
2023-02-22T05:11:40.493Z,93.03
2023-02-22T05:14:08.922Z,92.81
2023-02-22T05:16:37.159Z,93.05
2023-02-22T05:19:05.745Z,92.92
2023-02-22T05:21:33.795Z,92.42
2023-02-22T05:24:01.839Z,92.54
2023-02-22T05:26:30.224Z,92.38
2023-02-22T05:28:58.288Z,92.22
2023-02-22T05:31:26.802Z,92.34
2023-02-22T05:33:54.847Z,92.78
2023-02-22T05:36:23.308Z,92.60
2023-02-22T05:38:51.717Z,92.27
2023-02-22T05:41:20.163Z,92.48
2023-02-22T05:43:48.858Z,92.38
2023-02-22T05:46:17.300Z,92.37
2023-02-22T05:48:45.332Z,92.39
2023-02-22T05:51:13.566Z,91.74
2023-02-22T05:53:42.550Z,92.13
2023-02-22T05:56:10.933Z,91.75
2023-02-22T05:58:38.995Z,92.10
2023-02-22T06:01:07.625Z,92.56
2023-02-22T06:03:35.622Z,92.66
2023-02-22T06:06:05.660Z,91.87
2023-02-22T06:08:33.620Z,92.18
2023-02-22T06:11:02.147Z,92.31
2023-02-22T06:13:30.096Z,92.52
2023-02-22T06:16:00.744Z,92.40
2023-02-22T06:18:30.999Z,92.20
2023-02-22T06:21:00.247Z,92.01
2023-02-22T06:23:28.697Z,91.68
2023-02-22T06:25:56.804Z,92.37
2023-02-22T06:28:26.364Z,92.03
2023-02-22T06:30:54.367Z,92.46
2023-02-22T06:33:22.769Z,91.85
2023-02-22T06:35:50.907Z,92.11
2023-02-22T06:38:27.675Z,92.50
2023-02-22T06:40:56.439Z,92.78
2023-02-22T06:43:25.999Z,92.48
2023-02-22T06:45:54.602Z,92.63
2023-02-22T06:48:22.777Z,91.66
2023-02-22T06:50:50.913Z,91.50
2023-02-22T06:53:18.964Z,91.66
2023-02-22T06:55:46.914Z,91.37
2023-02-22T06:58:15.981Z,91.85
2023-02-22T07:00:44.072Z,91.70
2023-02-22T07:03:14.309Z,91.16
2023-02-22T07:05:42.829Z,91.59
2023-02-22T07:08:11.587Z,91.80
2023-02-22T07:10:41.154Z,91.44
2023-02-22T07:13:10.016Z,91.78
2023-02-22T07:15:38.510Z,92.13
2023-02-22T07:18:07.466Z,91.92
2023-02-22T07:20:36.283Z,91.80
2023-02-22T07:23:04.438Z,91.93
2023-02-22T07:25:32.941Z,91.67
2023-02-22T07:28:01.487Z,91.23
2023-02-22T07:30:34.064Z,91.99
2023-02-22T07:33:05.857Z,92.34
2023-02-22T07:35:49.513Z,92.27
2023-02-22T07:38:20.230Z,92.57
2023-02-22T07:40:48.591Z,92.40
2023-02-22T07:43:23.601Z,92.25
2023-02-22T07:45:54.845Z,92.25
2023-02-22T07:48:26.886Z,91.81
2023-02-22T07:50:55.373Z,91.17
2023-02-22T07:53:30.785Z,90.85
2023-02-22T07:56:00.489Z,90.18
2023-02-22T07:58:31.855Z,90.13
2023-02-22T08:01:02.137Z,90.17
2023-02-22T08:03:36.408Z,90.32
2023-02-22T08:06:07.101Z,90.08
2023-02-22T08:08:35.732Z,89.62
2023-02-22T08:11:04.388Z,89.50
2023-02-22T08:13:32.860Z,89.14
2023-02-22T08:16:01.410Z,89.32
2023-02-22T08:18:29.816Z,89.34
2023-02-22T08:20:58.189Z,89.45
2023-02-22T08:23:27.451Z,89.30
2023-02-22T08:25:56.581Z,89.32
2023-02-22T08:28:26.444Z,88.70
2023-02-22T08:30:55.107Z,88.24
2023-02-22T08:33:23.703Z,87.60
2023-02-22T08:35:52.276Z,87.78
2023-02-22T08:38:26.101Z,87.66
2023-02-22T08:40:54.869Z,87.88
2023-02-22T08:43:23.804Z,87.23
2023-02-22T08:45:52.974Z,86.82
2023-02-22T08:48:22.030Z,86.64
2023-02-22T08:50:50.528Z,86.40
2023-02-22T08:53:19.043Z,85.89
2023-02-22T08:55:47.783Z,85.21
2023-02-22T08:58:16.266Z,85.07
2023-02-22T09:00:45.694Z,84.31
2023-02-22T09:03:16.410Z,83.66
2023-02-22T09:05:45.701Z,82.77
2023-02-22T09:08:14.450Z,82.72
2023-02-22T09:10:42.746Z,83.24
2023-02-22T09:13:11.132Z,82.69
2023-02-22T09:15:40.794Z,83.18
2023-02-22T09:18:11.581Z,82.99
2023-02-22T09:20:40.221Z,82.78
2023-02-22T09:23:11.219Z,82.95
2023-02-22T09:25:40.935Z,82.24
2023-02-22T09:28:09.303Z,81.58
2023-02-22T09:30:38.262Z,81.42
2023-02-22T09:33:18.489Z,81.41
2023-02-22T09:35:49.837Z,81.29
2023-02-22T09:38:24.773Z,81.07
2023-02-22T09:41:09.044Z,80.73
2023-02-22T09:44:08.794Z,80.28
2023-02-22T09:46:42.107Z,80.55
2023-02-22T09:49:38.180Z,80.59
2023-02-22T09:52:18.762Z,80.21
2023-02-22T09:54:57.772Z,80.10
2023-02-22T09:57:40.678Z,79.03
2023-02-22T10:00:17.531Z,78.76
2023-02-22T10:03:00.250Z,78.12
2023-02-22T10:05:31.075Z,78.24
2023-02-22T10:08:06.920Z,77.99
2023-02-22T10:10:39.973Z,77.12
2023-02-22T10:13:28.988Z,77.46
2023-02-22T10:16:44.546Z,77.13
2023-02-22T10:19:43.603Z,76.84
2023-02-22T10:22:40.197Z,76.87
2023-02-22T10:25:20.086Z,76.41
2023-02-22T10:28:21.901Z,75.86
2023-02-22T10:30:59.559Z,75.79
2023-02-22T10:33:42.550Z,75.73
2023-02-22T10:36:22.308Z,75.62
2023-02-22T10:39:09.188Z,75.19
2023-02-22T10:41:46.103Z,75.43
2023-02-22T10:44:14.442Z,75.23
2023-02-22T10:46:44.503Z,75.33
2023-02-22T10:49:19.003Z,74.81
2023-02-22T10:51:49.512Z,74.60
2023-02-22T10:54:26.683Z,74.54
2023-02-22T10:56:56.678Z,74.14
2023-02-22T10:59:38.281Z,73.81
2023-02-22T11:02:24.521Z,74.06
2023-02-22T11:04:59.555Z,73.55
2023-02-22T11:07:33.263Z,72.84
2023-02-22T11:10:10.240Z,72.76
2023-02-22T11:12:44.662Z,72.66
2023-02-22T11:15:32.927Z,72.03
2023-02-22T11:18:01.991Z,71.52
2023-02-22T11:20:38.420Z,71.93
2023-02-22T11:23:08.257Z,71.65
2023-02-22T11:25:43.124Z,71.63
2023-02-22T11:28:31.401Z,71.88
2023-02-22T11:31:23.564Z,72.15
2023-02-22T11:33:58.101Z,71.49
2023-02-22T11:36:46.609Z,71.49
2023-02-22T11:39:28.107Z,71.71
2023-02-22T11:41:59.705Z,71.60
2023-02-22T11:44:31.875Z,70.60
2023-02-22T11:47:07.037Z,71.21
2023-02-22T11:49:49.209Z,71.49
2023-02-22T11:52:39.485Z,71.66
2023-02-22T11:56:00.271Z,70.82
2023-02-22T11:59:08.865Z,71.02
2023-02-22T12:01:54.964Z,70.87
2023-02-22T12:04:57.520Z,70.71
2023-02-22T12:07:31.741Z,69.89
2023-02-22T12:10:14.760Z,70.10
2023-02-22T12:12:43.185Z,69.73
2023-02-22T12:15:31.099Z,69.94
2023-02-22T12:18:46.023Z,70.48
2023-02-22T12:21:19.311Z,70.71
2023-02-22T12:24:02.782Z,70.72
2023-02-22T12:26:42.449Z,70.30
2023-02-22T12:29:58.098Z,70.52
2023-02-22T12:32:42.956Z,69.86
2023-02-22T12:35:29.582Z,70.14
2023-02-22T12:38:15.348Z,70.55
2023-02-22T12:40:53.892Z,69.98
2023-02-22T12:43:39.016Z,69.48
2023-02-22T12:46:18.955Z,69.29
2023-02-22T12:49:13.934Z,69.90
2023-02-22T12:52:21.332Z,69.54
2023-02-22T12:55:07.120Z,70.15
2023-02-22T12:57:53.021Z,69.97
2023-02-22T13:00:56.841Z,70.70
2023-02-22T13:03:40.947Z,71.39
2023-02-22T13:06:27.700Z,71.38
2023-02-22T13:09:44.154Z,71.16
2023-02-22T13:12:14.692Z,70.79
2023-02-22T13:15:10.883Z,70.90
2023-02-22T13:18:12.813Z,70.55
2023-02-22T13:20:52.086Z,70.72
2023-02-22T13:24:04.846Z,71.11
2023-02-22T13:27:03.034Z,71.23
2023-02-22T13:29:43.941Z,71.20
2023-02-22T13:32:39.983Z,70.40
2023-02-22T13:35:10.785Z,70.71
2023-02-22T13:38:03.405Z,70.74
2023-02-22T13:40:57.877Z,70.52
2023-02-22T13:43:32.305Z,70.30
2023-02-22T13:46:37.202Z,70.86
2023-02-22T13:49:39.831Z,71.01
2023-02-22T13:52:17.199Z,70.93
2023-02-22T13:54:46.771Z,71.19
2023-02-22T13:57:48.193Z,70.88
2023-02-22T14:00:16.620Z,70.63
2023-02-22T14:03:14.391Z,70.99
2023-02-22T14:05:42.525Z,71.10
2023-02-22T14:08:19.747Z,71.23
2023-02-22T14:10:51.828Z,71.00
2023-02-22T14:13:29.172Z,71.20
2023-02-22T14:16:00.824Z,71.21
2023-02-22T14:18:32.701Z,71.16
2023-02-22T14:21:20.775Z,71.33
2023-02-22T14:24:13.157Z,71.80
2023-02-22T14:26:42.347Z,71.89
2023-02-22T14:29:10.367Z,71.38
2023-02-22T14:31:44.574Z,71.58
2023-02-22T14:34:21.453Z,71.33
2023-02-22T14:37:13.519Z,71.42
2023-02-22T14:39:43.737Z,71.59
2023-02-22T14:42:38.481Z,71.18
2023-02-22T14:45:09.707Z,71.56
2023-02-22T14:47:54.427Z,70.94
2023-02-22T14:50:28.879Z,71.51
2023-02-22T14:53:23.768Z,71.48
2023-02-22T14:56:04.350Z,71.40
2023-02-22T14:58:37.663Z,70.64
2023-02-22T15:02:05.692Z,70.87
2023-02-22T15:04:27.726Z,71.12
2023-02-22T15:06:58.488Z,70.56
2023-02-22T15:09:37.630Z,70.34
2023-02-22T15:12:05.814Z,70.62
2023-02-22T15:14:40.753Z,70.42
2023-02-22T15:17:22.939Z,70.58
2023-02-22T15:19:52.251Z,70.53
2023-02-22T15:22:37.245Z,71.08
2023-02-22T15:25:08.600Z,70.70
2023-02-22T15:27:38.079Z,71.24
2023-02-22T15:30:26.490Z,70.93
2023-02-22T15:33:04.477Z,71.00
2023-02-22T15:35:34.094Z,71.57
2023-02-22T15:38:14.622Z,71.11
2023-02-22T15:40:43.227Z,71.13
2023-02-22T15:43:24.284Z,71.85
2023-02-22T15:45:53.460Z,71.61
2023-02-22T15:48:21.611Z,71.98
2023-02-22T15:51:15.303Z,71.96
2023-02-22T15:53:48.611Z,72.19
2023-02-22T15:56:29.959Z,72.30
2023-02-22T15:59:13.199Z,72.41
2023-02-22T16:01:48.371Z,72.59
2023-02-22T16:04:26.867Z,72.47
2023-02-22T16:07:16.913Z,72.63
2023-02-22T16:09:51.374Z,72.72
2023-02-22T16:12:22.407Z,72.93
2023-02-22T16:14:52.546Z,72.91
2023-02-22T16:17:30.856Z,72.75
2023-02-22T16:20:08.425Z,73.05
2023-02-22T16:22:39.499Z,73.78
2023-02-22T16:25:20.208Z,73.46
2023-02-22T16:28:01.620Z,73.16
2023-02-22T16:30:39.593Z,73.87
2023-02-22T16:33:13.767Z,74.16
2023-02-22T16:35:51.748Z,74.42
2023-02-22T16:38:21.293Z,74.78
2023-02-22T16:40:56.625Z,74.59
2023-02-22T16:43:32.710Z,74.64
2023-02-22T16:46:02.986Z,75.35
2023-02-22T16:48:33.686Z,75.59
2023-02-22T16:51:08.932Z,75.46
2023-02-22T16:53:38.858Z,75.36
2023-02-22T16:56:11.754Z,75.63
2023-02-22T16:58:41.862Z,76.29
2023-02-22T17:01:12.698Z,76.09
2023-02-22T17:03:41.280Z,76.70
2023-02-22T17:06:11.109Z,76.73
2023-02-22T17:08:41.837Z,77.36
2023-02-22T17:11:14.040Z,77.66
2023-02-22T17:13:42.061Z,77.75
2023-02-22T17:16:15.972Z,77.89
2023-02-22T17:18:45.905Z,77.97
2023-02-22T17:21:16.597Z,78.32
2023-02-22T17:23:46.260Z,78.75
2023-02-22T17:26:17.246Z,78.40
2023-02-22T17:28:46.133Z,78.65
2023-02-22T17:31:24.094Z,78.54
2023-02-22T17:33:52.515Z,79.04
2023-02-22T17:36:21.105Z,79.02
2023-02-22T17:38:50.007Z,78.41
2023-02-22T17:41:26.375Z,78.76
2023-02-22T17:43:58.687Z,79.02
2023-02-22T17:46:47.825Z,79.02
2023-02-22T17:49:42.182Z,79.24
2023-02-22T17:52:17.803Z,79.32
2023-02-22T17:57:59.384Z,79.80
2023-02-22T18:00:38.956Z,80.27
2023-02-22T18:03:21.207Z,80.83
2023-02-22T18:06:10.072Z,80.74
2023-02-22T18:08:39.240Z,81.22
2023-02-22T18:11:07.826Z,81.55
2023-02-22T18:13:36.460Z,81.88
2023-02-22T18:16:05.821Z,82.10
2023-02-22T18:18:34.823Z,82.71
2023-02-22T18:21:04.152Z,82.97
2023-02-22T18:23:34.235Z,83.17
2023-02-22T18:26:11.099Z,83.07
2023-02-22T18:28:40.588Z,83.62
2023-02-22T18:31:14.458Z,84.57
2023-02-22T18:33:49.450Z,85.08
2023-02-22T18:36:23.010Z,85.27
2023-02-22T18:38:54.185Z,85.38
2023-02-22T18:41:26.557Z,86.06
2023-02-22T18:43:58.977Z,86.10
2023-02-22T18:46:27.998Z,86.29
2023-02-22T18:48:57.816Z,86.38
2023-02-22T18:51:27.109Z,86.63
2023-02-22T18:54:00.427Z,86.55
2023-02-22T18:56:30.883Z,87.27
2023-02-22T18:59:02.441Z,87.42
2023-02-22T19:01:31.609Z,87.59
2023-02-22T19:04:01.871Z,87.66
2023-02-22T19:06:30.376Z,87.63
2023-02-22T19:09:01.390Z,87.69
2023-02-22T19:11:30.090Z,87.69
2023-02-22T19:13:59.604Z,87.81
2023-02-22T19:16:29.020Z,88.24
2023-02-22T19:18:59.115Z,88.33
2023-02-22T19:21:29.858Z,88.67
2023-02-22T19:24:00.054Z,88.59
2023-02-22T19:26:38.449Z,89.28
2023-02-22T19:29:08.439Z,89.60
2023-02-22T19:31:36.992Z,89.87
2023-02-22T19:34:11.974Z,89.56
2023-02-22T19:36:46.895Z,89.68
2023-02-22T19:39:18.885Z,90.05
2023-02-22T19:41:48.038Z,90.25
2023-02-22T19:44:16.487Z,89.81
2023-02-22T19:46:46.737Z,89.73
2023-02-22T19:49:16.179Z,89.96
2023-02-22T19:51:44.226Z,89.96
2023-02-22T19:54:17.416Z,89.82
2023-02-22T19:56:50.813Z,90.13
2023-02-22T19:59:22.896Z,91.07
2023-02-22T20:01:54.973Z,90.85
2023-02-22T20:04:23.617Z,90.91
2023-02-22T20:06:55.141Z,91.42
2023-02-22T20:09:29.839Z,91.19
2023-02-22T20:11:59.296Z,92.06
2023-02-22T20:14:30.586Z,91.95
2023-02-22T20:17:00.564Z,91.96
2023-02-22T20:19:29.859Z,91.86
2023-02-22T20:22:00.316Z,92.05
2023-02-22T20:24:28.814Z,91.90
2023-02-22T20:26:58.324Z,92.48
2023-02-22T20:29:30.481Z,92.32
2023-02-22T20:32:05.582Z,92.56
2023-02-22T20:34:36.365Z,92.60
2023-02-22T20:37:05.489Z,92.58
2023-02-22T20:39:34.139Z,92.90
2023-02-22T20:42:04.691Z,93.27
2023-02-22T20:44:33.170Z,92.73
2023-02-22T20:47:03.449Z,92.87
2023-02-22T20:49:31.841Z,93.26
2023-02-22T20:52:00.519Z,93.27
2023-02-22T20:54:28.957Z,93.16
2023-02-22T20:56:57.489Z,93.03
2023-02-22T20:59:29.050Z,93.35
2023-02-22T21:01:57.293Z,93.62
2023-02-22T21:04:25.638Z,93.38
2023-02-22T21:06:54.058Z,93.57
2023-02-22T21:09:22.765Z,93.04
2023-02-22T21:11:51.336Z,93.11
2023-02-22T21:14:20.262Z,93.68
2023-02-22T21:16:51.870Z,93.48
2023-02-22T21:19:25.492Z,93.68
2023-02-22T21:21:56.504Z,93.43
2023-02-22T21:24:27.477Z,93.23
2023-02-22T21:26:58.585Z,93.54
2023-02-22T21:29:27.090Z,93.61
2023-02-22T21:31:55.835Z,93.14
2023-02-22T21:34:25.726Z,93.46
2023-02-22T21:36:54.565Z,93.46
2023-02-22T21:39:28.349Z,93.80
2023-02-22T21:42:00.640Z,93.76
2023-02-22T21:44:29.242Z,93.49
2023-02-22T21:46:57.746Z,93.61
2023-02-22T21:49:26.003Z,93.44
2023-02-22T21:51:54.183Z,93.69
2023-02-22T21:54:23.010Z,93.92
2023-02-22T21:56:51.624Z,94.29
2023-02-22T21:59:23.704Z,93.67
2023-02-22T22:01:56.629Z,94.28
2023-02-22T22:04:31.292Z,93.93
2023-02-22T22:07:01.779Z,94.37
2023-02-22T22:09:37.145Z,94.16
2023-02-22T22:12:06.076Z,93.93
2023-02-22T22:14:36.193Z,94.35
2023-02-22T22:17:07.974Z,94.00
2023-02-22T22:19:40.431Z,94.25
2023-02-22T22:22:09.460Z,94.10
2023-02-22T22:24:41.351Z,94.51
2023-02-22T22:27:12.276Z,94.64
2023-02-22T22:29:40.497Z,94.92
2023-02-22T22:32:10.590Z,94.89
2023-02-22T22:34:39.165Z,94.98
2023-02-22T22:37:07.671Z,94.94
2023-02-22T22:39:35.689Z,94.28
2023-02-22T22:42:03.814Z,94.20
2023-02-22T22:44:42.043Z,94.28
2023-02-22T22:47:12.460Z,94.40
2023-02-22T22:49:42.492Z,94.11
2023-02-22T22:52:14.150Z,94.70
2023-02-22T22:54:44.424Z,94.45
2023-02-22T22:57:13.456Z,94.47
2023-02-22T22:59:42.132Z,94.87
2023-02-22T23:02:11.610Z,95.06
2023-02-22T23:04:39.840Z,94.90
2023-02-22T23:07:08.498Z,95.29
2023-02-22T23:09:38.749Z,95.03
2023-02-22T23:12:09.619Z,95.05
2023-02-22T23:14:44.094Z,95.19
2023-02-22T23:17:26.815Z,95.47
2023-02-22T23:19:56.120Z,95.01
2023-02-22T23:22:24.545Z,94.87
2023-02-22T23:24:54.507Z,94.89
2023-02-22T23:27:23.717Z,94.97
2023-02-22T23:29:52.499Z,94.75
2023-02-22T23:32:21.125Z,94.42
2023-02-22T23:34:49.893Z,94.57
2023-02-22T23:37:20.877Z,94.52
2023-02-22T23:39:50.883Z,94.90
2023-02-22T23:42:19.146Z,94.63
2023-02-22T23:44:47.175Z,94.05
2023-02-22T23:47:16.039Z,94.40
2023-02-22T23:49:49.277Z,94.45
2023-02-22T23:52:24.240Z,94.45
2023-02-22T23:54:53.883Z,94.65
2023-02-22T23:57:22.050Z,94.75
2023-02-22T23:59:51.349Z,94.24
